Time;durP1;ratioP1;P1;durP2;ratioP2;P2;SDS_P1;SDS_P2;PMS_P1;PMS_P2;Temp;Humidity;BMP_temperature;BMP_pressure;BME280_temperature;BME280_humidity;BME280_pressure;Samples;Min_cycle;Max_cycle;Signal;HPM_P1;HPM_P2
2023/12/08 00:01:19;;;;;;;22.63;13.10;;;;;;;1.09;100.00;100759.47;5079721;28;20042;-78
2023/12/08 00:03:45;;;;;;;22.48;13.23;;;;;;;1.05;100.00;100748.09;5079617;28;20032;-78
2023/12/08 00:06:10;;;;;;;20.05;12.77;;;;;;;1.10;100.00;100742.94;5100553;28;20067;-78
2023/12/08 00:08:37;;;;;;;19.48;12.18;;;;;;;1.11;100.00;100744.69;5092633;28;20479;-78
2023/12/08 00:11:06;;;;;;;19.73;12.50;;;;;;;1.09;100.00;100749.03;5098144;28;20036;-78
2023/12/08 00:13:32;;;;;;;20.45;12.73;;;;;;;1.10;100.00;100729.91;5097778;28;20024;-78
2023/12/08 00:15:58;;;;;;;21.13;12.95;;;;;;;1.11;100.00;100749.91;5079902;28;20439;-78
2023/12/08 00:18:23;;;;;;;21.10;13.70;;;;;;;1.10;100.00;100740.34;5079502;28;20068;-79
2023/12/08 00:20:49;;;;;;;20.63;12.43;;;;;;;1.13;100.00;100737.78;5079741;28;20044;-78
2023/12/08 00:23:14;;;;;;;22.52;13.02;;;;;;;1.11;100.00;100736.00;5067920;28;20063;-78
2023/12/08 00:25:40;;;;;;;22.05;13.70;;;;;;;1.13;100.00;100745.59;5097912;28;20110;-78
2023/12/08 00:28:06;;;;;;;26.13;12.45;;;;;;;1.12;100.00;100745.59;5079536;28;20040;-78
2023/12/08 00:30:31;;;;;;;23.40;12.98;;;;;;;1.11;100.00;100742.09;5079262;28;20097;-78
2023/12/08 00:32:57;;;;;;;20.50;12.52;;;;;;;1.11;100.00;100736.00;5097709;28;20050;-78
2023/12/08 00:35:22;;;;;;;20.15;12.35;;;;;;;1.09;100.00;100733.38;5082276;28;20115;-78
2023/12/08 00:37:48;;;;;;;21.10;12.57;;;;;;;1.10;100.00;100719.47;5079329;28;20032;-78
2023/12/08 00:40:16;;;;;;;20.45;12.35;;;;;;;1.10;100.00;100727.31;5077477;28;20059;-78
2023/12/08 00:42:41;;;;;;;18.85;12.45;;;;;;;1.11;100.00;100725.56;5076368;28;20036;-78
2023/12/08 00:45:07;;;;;;;20.00;13.55;;;;;;;1.10;100.00;100719.47;5087785;28;20023;-78
2023/12/08 00:47:32;;;;;;;19.35;12.05;;;;;;;1.12;100.00;100722.13;5090210;28;20051;-78
2023/12/08 00:49:58;;;;;;;22.33;12.75;;;;;;;1.12;100.00;100716.91;5083048;28;20039;-78
2023/12/08 00:52:23;;;;;;;19.75;12.73;;;;;;;1.14;100.00;100723.00;5077182;28;20093;-78
2023/12/08 00:54:49;;;;;;;19.77;12.18;;;;;;;1.14;100.00;100723.91;5096587;28;20161;-78
2023/12/08 00:57:15;;;;;;;21.30;13.45;;;;;;;1.14;100.00;100717.78;5075846;28;20040;-78
2023/12/08 00:59:40;;;;;;;20.52;12.43;;;;;;;1.14;100.00;100716.06;5094326;28;20065;-78
2023/12/08 01:02:07;;;;;;;23.73;12.73;;;;;;;1.12;100.00;100706.47;5099084;28;20479;-78
2023/12/08 01:04:34;;;;;;;22.02;13.32;;;;;;;1.12;100.00;100709.94;5098642;28;20119;-78
2023/12/08 01:06:59;;;;;;;19.88;13.00;;;;;;;1.15;100.00;100710.00;5085609;28;20036;-78
2023/12/08 01:09:25;;;;;;;21.42;12.82;;;;;;;1.15;100.00;100709.13;5094138;28;20085;-78
2023/12/08 01:11:50;;;;;;;20.95;12.88;;;;;;;1.16;100.00;100705.66;5078920;28;20367;-77
2023/12/08 01:14:16;;;;;;;22.10;12.70;;;;;;;1.17;100.00;100702.19;5091678;28;20041;-78
2023/12/08 01:16:42;;;;;;;21.63;13.15;;;;;;;1.17;100.00;100695.25;5095014;28;20138;-78
2023/12/08 01:19:09;;;;;;;21.20;12.10;;;;;;;1.17;100.00;100700.47;5081644;28;20032;-78
2023/12/08 01:21:38;;;;;;;22.60;12.68;;;;;;;1.15;100.00;100696.94;5093778;28;20032;-78
2023/12/08 01:24:05;;;;;;;19.25;12.07;;;;;;;1.17;100.00;100686.56;5097540;28;20030;-78
2023/12/08 01:26:31;;;;;;;18.08;12.07;;;;;;;1.19;100.00;100690.94;5074971;28;20040;-77
2023/12/08 01:28:56;;;;;;;20.60;13.40;;;;;;;1.18;100.00;100694.38;5095850;28;20024;-78
2023/12/08 01:31:22;;;;;;;20.80;12.65;;;;;;;1.21;100.00;100698.75;5074485;28;20151;-78
2023/12/08 01:33:47;;;;;;;17.50;12.27;;;;;;;1.21;100.00;100691.84;5093310;28;20479;-78
2023/12/08 01:36:14;;;;;;;19.95;12.73;;;;;;;1.20;100.00;100679.63;5093564;28;20048;-78
2023/12/08 01:38:44;;;;;;;20.73;12.40;;;;;;;1.20;100.00;100683.97;5058176;28;20126;-78
2023/12/08 01:41:13;;;;;;;17.52;11.52;;;;;;;1.22;100.00;100674.44;5093463;28;20475;-78
2023/12/08 01:43:39;;;;;;;19.75;11.73;;;;;;;1.21;100.00;100670.06;5102476;28;20462;-78
2023/12/08 01:46:04;;;;;;;20.75;12.38;;;;;;;1.24;100.00;100667.53;5078421;28;20062;-78
2023/12/08 01:48:30;;;;;;;17.23;10.88;;;;;;;1.21;100.00;100668.34;5107198;28;20032;-79
2023/12/08 01:50:55;;;;;;;22.20;12.55;;;;;;;1.24;100.00;100664.91;5105093;28;20390;-78
2023/12/08 01:53:21;;;;;;;20.73;13.02;;;;;;;1.23;100.00;100663.13;5059338;28;20048;-79
2023/12/08 01:55:47;;;;;;;20.05;13.05;;;;;;;1.24;100.00;100672.75;5098937;28;20146;-80
2023/12/08 01:58:13;;;;;;;15.38;10.35;;;;;;;1.23;100.00;100664.00;5087658;28;20032;-80
2023/12/08 02:00:40;;;;;;;20.73;12.65;;;;;;;1.23;100.00;100658.78;5100949;28;20512;-80
2023/12/08 02:03:07;;;;;;;16.98;11.02;;;;;;;1.25;100.00;100659.69;5074436;28;20390;-80
2023/12/08 02:05:36;;;;;;;17.98;12.65;;;;;;;1.24;100.00;100652.75;5099398;28;20059;-80
2023/12/08 02:08:02;;;;;;;17.52;11.32;;;;;;;1.22;100.00;100649.22;5092879;28;20042;-79
2023/12/08 02:10:27;;;;;;;19.23;11.45;;;;;;;1.23;100.00;100653.56;5100658;28;20111;-80
2023/12/08 02:12:52;;;;;;;17.83;10.75;;;;;;;1.25;100.00;100648.38;5075914;28;20044;-80
2023/12/08 02:15:18;;;;;;;18.50;12.13;;;;;;;1.24;100.00;100641.44;5098697;28;20084;-80
2023/12/08 02:17:45;;;;;;;19.65;10.77;;;;;;;1.24;100.00;100634.47;5084371;28;20413;-80
2023/12/08 02:20:11;;;;;;;18.33;12.30;;;;;;;1.23;100.00;100624.00;5073329;28;20040;-80
2023/12/08 02:22:37;;;;;;;17.17;11.93;;;;;;;1.25;100.00;100624.91;5025277;28;20039;-80
2023/12/08 02:25:03;;;;;;;19.50;11.63;;;;;;;1.24;100.00;100617.97;5087063;28;20096;-80
2023/12/08 02:27:29;;;;;;;18.88;12.13;;;;;;;1.24;100.00;100621.44;5109123;28;20512;-80
2023/12/08 02:29:55;;;;;;;18.85;11.90;;;;;;;1.22;100.00;100617.94;5074033;28;20039;-80
2023/12/08 02:32:42;;;;;;;16.98;10.85;;;;;;;1.26;100.00;100618.81;5107261;28;20036;-80
2023/12/08 02:35:09;;;;;;;18.95;12.05;;;;;;;1.22;100.00;100604.88;5079896;28;20051;-80
2023/12/08 02:37:37;;;;;;;17.63;11.90;;;;;;;1.22;100.00;100619.66;5095817;28;20038;-80
2023/12/08 02:40:07;;;;;;;19.77;12.23;;;;;;;1.21;100.00;100603.16;5071633;28;20062;-80
2023/12/08 02:42:34;;;;;;;20.92;12.15;;;;;;;1.23;100.00;100604.00;5087027;28;20518;-80
2023/12/08 02:44:59;;;;;;;15.45;10.95;;;;;;;1.26;100.00;100604.06;5083009;28;20039;-80
2023/12/08 02:47:25;;;;;;;22.00;12.32;;;;;;;1.25;100.00;100607.53;5070499;28;20036;-80
2023/12/08 02:49:50;;;;;;;18.50;12.77;;;;;;;1.21;100.00;100600.53;5081017;28;20494;-79
2023/12/08 02:52:16;;;;;;;17.10;12.38;;;;;;;1.25;100.00;100614.47;5075955;28;20131;-79
2023/12/08 02:54:41;;;;;;;19.13;11.80;;;;;;;1.24;100.00;100613.63;5103484;28;20074;-79
2023/12/08 02:57:07;;;;;;;18.83;12.52;;;;;;;1.25;100.00;100612.75;5078426;28;20556;-79
2023/12/08 02:59:32;;;;;;;24.88;13.32;;;;;;;1.24;100.00;100611.00;5095495;28;20046;-80
2023/12/08 03:01:58;;;;;;;19.02;10.65;;;;;;;1.23;100.00;100613.59;5093202;28;20048;-79
2023/12/08 03:04:23;;;;;;;20.17;12.50;;;;;;;1.24;100.00;100616.22;5074767;28;20044;-79
2023/12/08 03:06:49;;;;;;;18.75;11.18;;;;;;;1.23;100.00;100611.84;5100122;28;20055;-79
2023/12/08 03:09:14;;;;;;;18.90;12.05;;;;;;;1.23;100.00;100609.22;5073638;28;20387;-79
2023/12/08 03:11:40;;;;;;;18.23;12.27;;;;;;;1.22;100.00;100609.22;5091370;28;20043;-79
2023/12/08 03:14:05;;;;;;;18.88;11.93;;;;;;;1.24;100.00;100611.00;5073836;28;20115;-80
2023/12/08 03:16:31;;;;;;;18.65;12.73;;;;;;;1.26;100.00;100618.81;5083589;28;20119;-79
2023/12/08 03:18:56;;;;;;;18.40;12.40;;;;;;;1.26;100.00;100611.91;5098689;28;20067;-79
2023/12/08 03:21:27;;;;;;;21.25;12.20;;;;;;;1.24;100.00;100616.22;5098181;28;20398;-80
2023/12/08 03:23:52;;;;;;;19.67;12.40;;;;;;;1.25;100.00;100624.91;5102394;28;20039;-79
2023/12/08 03:26:18;;;;;;;16.17;11.27;;;;;;;1.27;100.00;100618.00;5091993;28;20119;-80
2023/12/08 03:28:44;;;;;;;19.45;13.02;;;;;;;1.26;100.00;100617.13;5079640;28;20486;-80
2023/12/08 03:31:27;;;;;;;18.05;11.65;;;;;;;1.25;100.00;100604.91;5083156;28;20092;-80
2023/12/08 03:33:53;;;;;;;21.55;12.38;;;;;;;1.25;100.00;100593.63;5092969;28;20471;-80
2023/12/08 03:36:19;;;;;;;18.77;12.50;;;;;;;1.25;100.00;100594.47;5101847;28;20035;-80
2023/12/08 03:38:44;;;;;;;20.90;12.52;;;;;;;1.25;100.00;100591.88;5077458;28;20028;-79
2023/12/08 03:41:11;;;;;;;20.40;12.40;;;;;;;1.27;100.00;100591.91;5090312;28;20546;-79
2023/12/08 03:43:37;;;;;;;17.58;12.50;;;;;;;1.26;100.00;100584.91;5102569;28;20123;-79
2023/12/08 03:46:04;;;;;;;17.65;11.73;;;;;;;1.27;100.00;100590.16;5106175;28;20173;-79
2023/12/08 03:48:30;;;;;;;19.80;13.40;;;;;;;1.25;100.00;100589.25;5078900;28;20039;-79
2023/12/08 03:50:55;;;;;;;19.55;12.60;;;;;;;1.25;100.00;100583.19;5098822;28;20154;-80
2023/12/08 03:53:20;;;;;;;21.40;12.40;;;;;;;1.24;100.00;100587.53;5098091;28;20039;-79
2023/12/08 03:55:46;;;;;;;19.73;11.63;;;;;;;1.25;100.00;100591.00;5087134;28;20049;-79
2023/12/08 03:58:12;;;;;;;18.45;12.93;;;;;;;1.24;100.00;100581.44;5088554;28;20103;-79
2023/12/08 04:00:37;;;;;;;20.75;12.55;;;;;;;1.25;100.00;100581.44;5088026;28;20039;-79
2023/12/08 04:03:02;;;;;;;19.05;12.10;;;;;;;1.27;100.00;100584.06;5081557;28;20035;-80
2023/12/08 04:05:28;;;;;;;18.38;12.30;;;;;;;1.23;100.00;100575.31;5064836;28;20478;-79
2023/12/08 04:07:54;;;;;;;19.00;11.68;;;;;;;1.25;100.00;100573.63;5102278;28;20058;-79
2023/12/08 04:10:19;;;;;;;17.45;11.27;;;;;;;1.28;100.00;100570.16;5079324;28;20047;-79
2023/12/08 04:12:45;;;;;;;24.10;13.25;;;;;;;1.29;100.00;100566.72;5104281;28;20478;-79
2023/12/08 04:15:10;;;;;;;19.95;11.93;;;;;;;1.29;100.00;100577.16;5080875;28;20334;-79
2023/12/08 04:17:36;;;;;;;20.67;12.65;;;;;;;1.29;100.00;100562.38;5076544;28;20044;-79
2023/12/08 04:20:03;;;;;;;21.50;13.30;;;;;;;1.29;100.00;100567.59;5068415;28;20047;-79
2023/12/08 04:22:29;;;;;;;21.13;12.32;;;;;;;1.26;100.00;100558.81;5078106;28;20371;-79
2023/12/08 04:24:54;;;;;;;23.80;14.07;;;;;;;1.28;100.00;100563.22;5060873;28;20050;-79
2023/12/08 04:27:20;;;;;;;21.00;13.18;;;;;;;1.25;100.00;100547.53;5089472;28;20036;-79
2023/12/08 04:29:45;;;;;;;21.65;13.02;;;;;;;1.25;100.00;100544.91;5106386;28;20389;-79
2023/12/08 04:32:11;;;;;;;20.67;12.85;;;;;;;1.27;100.00;100574.50;5090966;28;20051;-79
2023/12/08 04:34:36;;;;;;;20.38;12.10;;;;;;;1.25;100.00;100578.81;5074406;28;20080;-79
2023/12/08 04:37:04;;;;;;;22.60;12.45;;;;;;;1.26;100.00;100570.16;5084510;28;20102;-79
2023/12/08 04:39:29;;;;;;;17.08;11.45;;;;;;;1.25;100.00;100584.03;5094400;28;20047;-79
2023/12/08 04:41:55;;;;;;;19.02;12.02;;;;;;;1.27;100.00;100584.06;5081949;28;20040;-79
2023/12/08 04:44:20;;;;;;;20.77;12.52;;;;;;;1.27;100.00;100576.25;5074096;28;20097;-79
2023/12/08 04:46:46;;;;;;;19.30;13.10;;;;;;;1.27;100.00;100553.66;5079372;28;20036;-79
2023/12/08 04:49:11;;;;;;;20.25;13.63;;;;;;;1.28;100.00;100552.78;5101626;28;20059;-79
2023/12/08 04:51:41;;;;;;;20.13;13.43;;;;;;;1.27;100.00;100566.69;5083319;28;20462;-79
2023/12/08 04:54:06;;;;;;;19.88;11.60;;;;;;;1.28;100.00;100568.41;5098049;28;20080;-79
2023/12/08 04:56:31;;;;;;;16.67;12.32;;;;;;;1.28;100.00;100576.25;5099383;28;20449;-79
2023/12/08 04:58:57;;;;;;;19.90;11.77;;;;;;;1.29;100.00;100567.59;5105014;28;20032;-79
2023/12/08 05:01:22;;;;;;;19.52;12.55;;;;;;;1.32;100.00;100556.31;5105348;28;20044;-79
2023/12/08 05:03:48;;;;;;;17.02;11.45;;;;;;;1.30;100.00;100550.19;5102329;28;20066;-79
2023/12/08 05:06:14;;;;;;;20.08;12.18;;;;;;;1.34;100.00;100554.59;5104610;28;20505;-79
2023/12/08 05:08:40;;;;;;;19.98;13.32;;;;;;;1.33;100.00;100557.19;5102745;28;20062;-79
2023/12/08 05:11:06;;;;;;;19.00;11.93;;;;;;;1.35;100.00;100561.56;5106894;28;20051;-79
2023/12/08 05:13:31;;;;;;;18.23;12.25;;;;;;;1.35;100.00;100558.94;5081726;28;20043;-79
2023/12/08 05:15:57;;;;;;;18.90;12.07;;;;;;;1.35;100.00;100558.94;5099841;28;20477;-80
2023/12/08 05:18:22;;;;;;;18.83;12.95;;;;;;;1.36;100.00;100555.50;5114053;28;20047;-79
2023/12/08 05:20:48;;;;;;;20.05;12.00;;;;;;;1.37;100.00;100549.41;5061868;28;20032;-79
2023/12/08 05:23:13;;;;;;;16.80;11.77;;;;;;;1.39;100.00;100555.53;5064215;28;20395;-79
2023/12/08 05:25:39;;;;;;;16.02;11.95;;;;;;;1.41;100.00;100545.09;5095790;28;20474;-79
2023/12/08 05:28:04;;;;;;;20.45;13.60;;;;;;;1.41;100.00;100548.59;5107890;28;20032;-80
2023/12/08 05:30:29;;;;;;;20.08;13.25;;;;;;;1.38;100.00;100532.88;5091216;28;20052;-79
2023/12/08 05:32:55;;;;;;;18.50;12.00;;;;;;;1.43;100.00;100548.59;5112744;28;20063;-80
2023/12/08 05:35:22;;;;;;;19.05;12.40;;;;;;;1.41;100.00;100545.09;5113931;28;20043;-80
2023/12/08 05:37:47;;;;;;;17.23;11.45;;;;;;;1.45;100.00;100554.69;5099200;28;20366;-79
2023/12/08 05:40:13;;;;;;;18.67;12.68;;;;;;;1.46;100.00;100561.69;5104994;28;20115;-79
2023/12/08 05:42:38;;;;;;;17.88;11.00;;;;;;;1.48;100.00;100568.69;5058366;28;20064;-79
2023/12/08 05:45:05;;;;;;;19.83;12.10;;;;;;;1.49;100.00;100565.19;5105805;28;20110;-79
2023/12/08 05:47:30;;;;;;;19.42;12.55;;;;;;;1.50;100.00;100559.09;5103703;28;20016;-79
2023/12/08 05:49:55;;;;;;;17.83;11.60;;;;;;;1.53;100.00;100570.44;5103468;28;20078;-79
2023/12/08 05:52:21;;;;;;;19.80;12.00;;;;;;;1.53;100.00;100581.75;5105701;28;20048;-79
2023/12/08 05:54:46;;;;;;;17.13;12.20;;;;;;;1.55;100.00;100577.41;5103047;28;20058;-79
2023/12/08 05:57:12;;;;;;;18.90;12.52;;;;;;;1.55;100.00;100569.59;5103618;28;20058;-79
2023/12/08 05:59:37;;;;;;;19.88;12.52;;;;;;;1.57;100.00;100567.00;5111128;28;20044;-79
2023/12/08 06:02:03;;;;;;;18.70;11.05;;;;;;;1.60;100.00;100585.31;5083193;28;20051;-79
2023/12/08 06:04:28;;;;;;;17.52;12.30;;;;;;;1.61;100.00;100572.28;5094819;28;20044;-79
2023/12/08 06:06:54;;;;;;;23.52;12.02;;;;;;;1.61;100.00;100564.44;5096426;28;20153;-79
2023/12/08 06:09:19;;;;;;;15.75;10.40;;;;;;;1.65;100.00;100560.13;5087150;28;20058;-79
2023/12/08 06:11:45;;;;;;;20.88;12.98;;;;;;;1.64;100.00;100540.97;5113004;28;20055;-79
2023/12/08 06:14:10;;;;;;;17.83;11.90;;;;;;;1.65;100.00;100547.06;5094957;28;20036;-79
2023/12/08 06:16:36;;;;;;;19.67;12.65;;;;;;;1.66;100.00;100551.44;5111110;28;20046;-79
2023/12/08 06:19:04;;;;;;;18.70;11.77;;;;;;;1.69;100.00;100561.91;5074804;28;20035;-79
2023/12/08 06:21:29;;;;;;;19.95;13.02;;;;;;;1.71;100.00;100566.28;5074330;28;20097;-79
2023/12/08 06:23:55;;;;;;;18.77;13.25;;;;;;;1.73;100.00;100571.50;5106899;28;20389;-79
2023/12/08 06:26:21;;;;;;;19.23;12.50;;;;;;;1.73;100.00;100576.72;5100187;28;20619;-79
2023/12/08 06:28:47;;;;;;;18.83;12.32;;;;;;;1.75;100.00;100574.16;5103555;28;20107;-80
2023/12/08 06:31:12;;;;;;;19.42;12.75;;;;;;;1.77;100.00;100567.22;5084671;28;20044;-79
2023/12/08 06:33:38;;;;;;;18.40;11.23;;;;;;;1.77;100.00;100575.91;5080065;28;20417;-79
2023/12/08 06:36:05;;;;;;;18.50;12.13;;;;;;;1.78;100.00;100563.72;5069644;28;20054;-79
2023/12/08 06:38:30;;;;;;;22.20;12.45;;;;;;;1.81;100.00;100574.22;5087711;28;20371;-79
2023/12/08 06:40:56;;;;;;;18.20;11.95;;;;;;;1.83;100.00;100578.59;5076960;28;20223;-79
2023/12/08 06:43:21;;;;;;;18.52;11.50;;;;;;;1.83;100.00;100575.97;5090822;28;20123;-79
2023/12/08 06:45:47;;;;;;;23.27;12.82;;;;;;;1.85;100.00;100581.19;5060941;28;20085;-79
2023/12/08 06:48:12;;;;;;;23.67;13.45;;;;;;;1.88;100.00;100586.44;5105040;28;20219;-79
2023/12/08 06:50:38;;;;;;;20.52;13.18;;;;;;;1.91;100.00;100587.38;5081889;28;20027;-79
2023/12/08 06:53:03;;;;;;;21.98;13.05;;;;;;;1.92;100.00;100586.50;5096046;28;20094;-79
2023/12/08 06:55:29;;;;;;;20.92;12.52;;;;;;;1.94;100.00;100590.00;5112439;28;20508;-79
2023/12/08 06:57:54;;;;;;;21.58;12.82;;;;;;;1.98;100.00;100588.31;5112287;28;20080;-79
2023/12/08 07:00:20;;;;;;;26.40;14.30;;;;;;;2.00;100.00;100597.00;5093678;28;20054;-79
2023/12/08 07:02:46;;;;;;;24.83;14.60;;;;;;;2.01;100.00;100601.38;5112291;28;20023;-79
2023/12/08 07:05:12;;;;;;;27.38;12.52;;;;;;;2.03;100.00;100593.53;5112342;28;20108;-79
2023/12/08 07:07:38;;;;;;;23.52;12.82;;;;;;;2.07;100.00;100600.56;5108152;28;20028;-79
2023/12/08 07:10:03;;;;;;;24.75;14.60;;;;;;;2.08;100.00;100597.09;5112228;28;20095;-80
2023/12/08 07:12:30;;;;;;;23.58;13.43;;;;;;;2.11;100.00;100573.63;5098227;28;20015;-80
2023/12/08 07:14:55;;;;;;;26.77;13.80;;;;;;;2.13;100.00;100591.03;5073638;28;20080;-80
2023/12/08 07:17:22;;;;;;;20.90;13.18;;;;;;;2.14;100.00;100590.16;5091867;28;20398;-80
2023/12/08 07:19:48;;;;;;;26.23;13.48;;;;;;;2.17;100.00;100581.47;5098246;28;20466;-80
2023/12/08 07:22:14;;;;;;;20.23;13.05;;;;;;;2.18;100.00;100582.34;5093953;28;20359;-80
2023/12/08 07:24:40;;;;;;;23.52;13.23;;;;;;;2.20;100.00;100591.09;5086168;28;20043;-79
2023/12/08 07:27:06;;;;;;;27.17;13.90;;;;;;;2.21;100.00;100590.25;5103100;28;20364;-80
2023/12/08 07:29:31;;;;;;;24.10;12.63;;;;;;;2.23;100.00;100593.75;5087758;28;20068;-80
2023/12/08 07:31:57;;;;;;;23.95;12.85;;;;;;;2.22;100.00;100589.38;5107978;28;20063;-80
2023/12/08 07:34:22;;;;;;;27.83;14.00;;;;;;;2.26;100.00;100597.25;5111666;28;20474;-79
2023/12/08 07:36:48;;;;;;;25.63;13.65;;;;;;;2.26;100.00;100597.25;5098527;28;20036;-80
2023/12/08 07:39:14;;;;;;;27.02;14.02;;;;;;;2.29;100.00;100602.47;5075731;28;20078;-80
2023/12/08 07:41:39;;;;;;;23.33;13.68;;;;;;;2.30;100.00;100598.13;5095844;28;20615;-80
2023/12/08 07:44:05;;;;;;;22.45;12.63;;;;;;;2.35;100.00;100606.91;5097863;28;20039;-80
2023/12/08 07:46:31;;;;;;;24.73;14.18;;;;;;;2.36;100.00;100606.91;5098840;28;20039;-80
2023/12/08 07:48:56;;;;;;;29.15;14.00;;;;;;;2.39;100.00;100610.41;5103277;28;20031;-80
2023/12/08 07:51:21;;;;;;;27.38;14.15;;;;;;;2.39;100.00;100613.03;5093619;28;20040;-79
2023/12/08 07:53:47;;;;;;;25.65;14.20;;;;;;;2.42;100.00;100613.03;5105729;28;20050;-79
2023/12/08 07:56:13;;;;;;;20.65;12.38;;;;;;;2.41;100.00;100614.78;5101723;28;20038;-79
2023/12/08 07:58:39;;;;;;;23.73;13.82;;;;;;;2.45;100.00;100623.50;5097520;28;20042;-79
2023/12/08 08:01:05;;;;;;;24.83;13.32;;;;;;;2.45;100.00;100619.19;5088383;28;20032;-79
2023/12/08 08:03:30;;;;;;;29.75;14.85;;;;;;;2.49;100.00;100627.91;5103438;28;20040;-79
2023/12/08 08:05:56;;;;;;;26.45;15.05;;;;;;;2.48;100.00;100627.03;5095888;28;20038;-79
2023/12/08 08:08:21;;;;;;;31.27;14.38;;;;;;;2.51;100.00;100627.06;5087087;28;20424;-79
2023/12/08 08:10:47;;;;;;;28.48;14.18;;;;;;;2.52;100.00;100627.91;5108546;28;20027;-80
2023/12/08 08:13:13;;;;;;;28.40;13.85;;;;;;;2.51;100.00;100628.78;5109182;28;20043;-79
2023/12/08 08:15:39;;;;;;;29.20;14.60;;;;;;;2.53;100.00;100627.06;5095907;28;20031;-79
2023/12/08 08:18:05;;;;;;;31.08;14.55;;;;;;;2.55;100.00;100625.34;5074704;28;20046;-79
2023/12/08 08:20:30;;;;;;;26.45;14.18;;;;;;;2.57;100.00;100623.59;5082375;28;20042;-79
2023/12/08 08:22:56;;;;;;;29.92;16.08;;;;;;;2.58;100.00;100631.47;5100450;28;20411;-79
2023/12/08 08:25:21;;;;;;;26.70;15.90;;;;;;;2.62;100.00;100629.75;5067863;28;20073;-79
2023/12/08 08:27:48;;;;;;;32.35;14.85;;;;;;;2.63;100.00;100626.28;5096834;28;20454;-79
2023/12/08 08:30:15;;;;;;;29.80;15.88;;;;;;;2.66;100.00;100638.50;5107940;28;20086;-79
2023/12/08 08:32:41;;;;;;;36.60;18.35;;;;;;;2.68;100.00;100635.03;5091387;28;20096;-79
2023/12/08 08:35:08;;;;;;;28.65;15.95;;;;;;;2.71;100.00;100636.78;5080048;28;20036;-77
2023/12/08 08:37:33;;;;;;;38.40;18.05;;;;;;;2.72;100.00;100630.69;5105191;28;20036;-80
2023/12/08 08:39:59;;;;;;;36.72;18.13;;;;;;;2.72;100.00;100631.56;5104475;28;20028;-80
2023/12/08 08:42:24;;;;;;;45.67;19.15;;;;;;;2.75;100.00;100639.44;5114717;28;20047;-80
2023/12/08 08:44:50;;;;;;;37.55;18.25;;;;;;;2.78;100.00;100643.81;5094849;28;20032;-80
2023/12/08 08:47:19;;;;;;;36.20;16.60;;;;;;;2.77;100.00;100648.16;5097705;27;20088;-81
2023/12/08 08:49:44;;;;;;;30.30;17.98;;;;;;;2.80;100.00;100648.19;5082696;28;20032;-81
2023/12/08 08:52:10;;;;;;;39.38;19.30;;;;;;;2.84;100.00;100661.28;5081607;28;20063;-80
2023/12/08 08:54:35;;;;;;;36.03;19.33;;;;;;;2.89;100.00;100649.09;5104921;28;20040;-81
2023/12/08 08:57:01;;;;;;;36.65;19.90;;;;;;;2.93;100.00;100661.34;5115152;28;20028;-81
2023/12/08 08:59:26;;;;;;;45.20;20.80;;;;;;;2.95;100.00;100652.63;5115047;28;20115;-81
2023/12/08 09:01:52;;;;;;;47.22;21.83;;;;;;;3.03;100.00;100657.03;5078843;28;20524;-79
2023/12/08 09:04:17;;;;;;;39.78;20.75;;;;;;;3.05;100.00;100661.41;5114576;28;20036;-79
2023/12/08 09:06:42;;;;;;;40.88;21.73;;;;;;;3.07;100.00;100659.69;5105507;28;20040;-80
2023/12/08 09:09:08;;;;;;;45.58;22.05;;;;;;;3.10;100.00;100662.31;5091491;28;20063;-79
2023/12/08 09:11:34;;;;;;;39.58;21.38;;;;;;;3.16;100.00;100659.72;5115085;28;20043;-79
2023/12/08 09:13:59;;;;;;;38.00;19.92;;;;;;;3.17;100.00;100665.84;5096547;28;20047;-79
2023/12/08 09:16:24;;;;;;;39.25;20.33;;;;;;;3.20;100.00;100669.34;5111800;28;20046;-79
2023/12/08 09:18:51;;;;;;;43.05;21.23;;;;;;;3.25;100.00;100676.34;5113193;28;20051;-79
2023/12/08 09:21:17;;;;;;;51.35;21.20;;;;;;;3.28;100.00;100672.00;5098906;28;20088;-79
2023/12/08 09:23:42;;;;;;;39.88;20.90;;;;;;;3.32;100.00;100668.53;5067513;28;20035;-80
2023/12/08 09:26:08;;;;;;;35.75;18.25;;;;;;;3.38;100.00;100686.88;5093525;28;20035;-80
2023/12/08 09:28:33;;;;;;;35.55;16.88;;;;;;;3.41;100.00;100679.06;5113645;28;20088;-80
2023/12/08 09:31:00;;;;;;;46.05;19.27;;;;;;;3.48;100.00;100671.22;5084944;28;20079;-79
2023/12/08 09:33:26;;;;;;;43.17;17.20;;;;;;;3.53;100.00;100677.34;5093171;28;20550;-80
2023/12/08 09:35:52;;;;;;;45.40;18.58;;;;;;;3.58;100.00;100686.09;5104943;28;20046;-81
2023/12/08 09:38:18;;;;;;;39.60;17.00;;;;;;;3.62;100.00;100678.28;5092156;28;20036;-81
2023/12/08 09:40:44;;;;;;;37.80;17.67;;;;;;;3.69;100.00;100683.53;5093696;28;20055;-83
2023/12/08 09:43:18;;;;;;;50.22;20.63;;;;;;;3.75;100.00;100683.56;5094234;28;20070;-81
2023/12/08 09:45:46;;;;;;;42.90;17.35;;;;;;;3.80;100.00;100684.44;5076346;28;20070;-81
2023/12/08 09:48:12;;;;;;;43.03;17.60;;;;;;;3.88;100.00;100681.00;5083395;28;20195;-81
2023/12/08 09:50:39;;;;;;;42.03;17.80;;;;;;;3.95;100.00;100674.00;5093105;28;20401;-81
2023/12/08 09:53:05;;;;;;;34.47;15.90;;;;;;;4.00;100.00;100668.78;5097346;28;20126;-81
2023/12/08 09:55:32;;;;;;;40.65;17.88;;;;;;;4.05;100.00;100677.53;5106568;28;20082;-81
2023/12/08 09:58:00;;;;;;;38.65;15.82;;;;;;;4.10;100.00;100678.41;5113449;28;20374;-82
2023/12/08 10:00:30;;;;;;;37.88;17.05;;;;;;;4.15;100.00;100676.66;5113620;28;20063;-81
2023/12/08 10:02:55;;;;;;;38.33;16.55;;;;;;;4.24;100.00;100681.06;5095223;28;20062;-81
2023/12/08 10:05:21;;;;;;;42.40;17.80;;;;;;;4.26;100.00;100685.44;5113608;28;20470;-81
2023/12/08 10:07:50;;;;;;;38.95;17.73;;;;;;;4.30;100.00;100697.69;5090203;28;20036;-82
2023/12/08 10:10:16;;;;;;;35.28;16.33;;;;;;;4.37;100.00;100690.69;5113412;28;20035;-80
2023/12/08 10:12:42;;;;;;;47.92;18.88;;;;;;;4.41;100.00;100681.94;5112630;28;20046;-80
2023/12/08 10:15:10;;;;;;;32.17;14.88;;;;;;;4.45;100.00;100680.19;5095268;28;20035;-80
2023/12/08 10:17:50;;;;;;;40.20;17.38;;;;;;;4.51;100.00;100678.47;5077941;28;20115;-80
2023/12/08 10:20:17;;;;;;;41.78;17.38;;;;;;;4.55;100.00;100676.72;5094979;28;20040;-80
2023/12/08 10:22:53;;;;;;;36.97;17.65;;;;;;;4.60;100.00;100674.97;5074621;28;20028;-79
2023/12/08 10:25:21;;;;;;;39.53;16.63;;;;;;;4.68;100.00;100691.56;5092560;28;20051;-80
2023/12/08 10:27:49;;;;;;;40.45;17.50;;;;;;;4.73;100.00;100699.44;5092616;28;20051;-80
2023/12/08 10:30:16;;;;;;;42.13;18.17;;;;;;;4.78;100.00;100696.81;5110154;28;20042;-80
2023/12/08 10:32:43;;;;;;;41.08;16.98;;;;;;;4.81;100.00;100694.19;5101269;28;20139;-80
2023/12/08 10:35:11;;;;;;;36.17;17.65;;;;;;;4.84;100.00;100688.94;5098388;28;20126;-79
2023/12/08 10:37:37;;;;;;;39.53;17.55;;;;;;;4.89;100.00;100685.41;5097098;28;20538;-79
2023/12/08 10:40:03;;;;;;;45.67;17.52;;;;;;;4.93;100.00;100688.94;5079911;28;20039;-80
2023/12/08 10:42:30;;;;;;;37.65;16.33;;;;;;;4.98;100.00;100691.56;5097871;28;20024;-79
2023/12/08 10:44:58;;;;;;;52.13;19.10;;;;;;;5.01;100.00;100694.16;5094206;28;20043;-79
2023/12/08 10:47:24;;;;;;;48.75;18.02;;;;;;;5.07;100.00;100694.16;5094394;28;20402;-79
2023/12/08 10:49:51;;;;;;;42.65;17.17;;;;;;;5.09;100.00;100693.25;5098905;28;20054;-79
2023/12/08 10:52:21;;;;;;;44.88;17.55;;;;;;;5.13;100.00;100686.28;5092144;28;20052;-79
2023/12/08 10:54:46;;;;;;;50.78;19.30;;;;;;;5.18;100.00;100692.38;5103441;28;20046;-79
2023/12/08 10:57:12;;;;;;;45.75;17.58;;;;;;;5.23;100.00;100690.63;5112596;28;20035;-79
2023/12/08 10:59:41;;;;;;;51.40;21.20;;;;;;;5.23;100.00;100688.00;5112516;28;20058;-79
2023/12/08 11:02:19;;;;;;;55.08;19.58;;;;;;;5.30;100.00;100692.34;5112455;28;20114;-79
2023/12/08 11:04:48;;;;;;;54.22;21.33;;;;;;;5.32;100.00;100689.75;5094230;28;20035;-79